createdAt,value
2022-11-13T00:00:19.407Z,115.18
2022-11-13T00:03:05.028Z,110.68
2022-11-13T00:06:01.981Z,100.43
2022-11-13T00:08:48.108Z,107.47
2022-11-13T00:11:34.318Z,105.20
2022-11-13T00:14:20.930Z,93.22
2022-11-13T00:17:06.978Z,113.55
2022-11-13T00:19:52.952Z,122.50
2022-11-13T00:22:38.657Z,122.65
2022-11-13T00:25:25.109Z,127.43
2022-11-13T00:28:11.655Z,154.57
2022-11-13T00:31:00.429Z,112.43
2022-11-13T00:34:09.022Z,162.75
2022-11-13T00:36:52.600Z,117.22
2022-11-13T00:39:38.803Z,117.78
2022-11-13T00:42:24.646Z,144.20
2022-11-13T00:45:10.729Z,114.70
2022-11-13T00:47:56.881Z,124.28
2022-11-13T00:50:43.606Z,102.40
2022-11-13T00:53:29.756Z,93.53
2022-11-13T00:56:15.580Z,106.05
2022-11-13T00:59:01.906Z,137.40
2022-11-13T01:01:47.694Z,120.93
2022-11-13T01:04:34.159Z,104.15
2022-11-13T01:07:20.658Z,112.88
2022-11-13T01:10:07.845Z,118.68
2022-11-13T01:12:54.183Z,116.38
2022-11-13T01:15:41.691Z,89.47
2022-11-13T01:18:28.285Z,78.20
2022-11-13T01:21:18.433Z,87.50
2022-11-13T01:24:24.469Z,77.95
2022-11-13T01:27:10.814Z,85.82
2022-11-13T01:29:56.989Z,83.68
2022-11-13T01:32:42.945Z,110.25
2022-11-13T01:35:28.523Z,79.03
2022-11-13T01:38:15.486Z,89.00
2022-11-13T01:41:01.379Z,90.80
2022-11-13T01:43:48.485Z,78.43
2022-11-13T01:46:38.983Z,69.70
2022-11-13T01:49:34.449Z,77.13
2022-11-13T01:52:22.740Z,72.95
2022-11-13T01:55:14.311Z,78.65
2022-11-13T01:58:02.614Z,75.65
2022-11-13T02:00:48.695Z,79.72
2022-11-13T02:03:35.151Z,77.32
2022-11-13T02:06:21.993Z,85.53
2022-11-13T02:09:09.783Z,77.60
2022-11-13T02:11:56.038Z,91.50
2022-11-13T02:14:45.760Z,80.85
2022-11-13T02:17:35.903Z,80.00
2022-11-13T02:20:32.739Z,83.80
2022-11-13T02:23:30.527Z,70.95
2022-11-13T02:26:20.447Z,67.20
2022-11-13T02:29:06.346Z,66.55
2022-11-13T02:31:52.098Z,55.53
2022-11-13T02:34:38.454Z,62.88
2022-11-13T02:37:24.223Z,69.43
2022-11-13T02:40:10.383Z,59.67
2022-11-13T02:42:56.471Z,72.18
2022-11-13T02:45:42.594Z,59.72
2022-11-13T02:48:28.574Z,68.30
2022-11-13T02:51:15.190Z,74.32
2022-11-13T02:54:00.974Z,73.38
2022-11-13T02:56:46.952Z,61.15
2022-11-13T02:59:32.609Z,67.88
2022-11-13T03:02:18.506Z,73.65
2022-11-13T03:05:12.098Z,78.93
2022-11-13T03:07:59.670Z,85.78
2022-11-13T03:10:46.702Z,69.80
2022-11-13T03:13:32.315Z,82.72
2022-11-13T03:16:18.510Z,100.07
2022-11-13T03:19:04.674Z,82.03
2022-11-13T03:21:50.715Z,89.93
2022-11-13T03:24:36.702Z,64.80
2022-11-13T03:27:22.957Z,74.93
2022-11-13T03:30:09.325Z,81.75
2022-11-13T03:32:55.655Z,76.43
2022-11-13T03:35:46.757Z,69.30
2022-11-13T03:38:33.935Z,63.20
2022-11-13T03:41:21.154Z,50.15
2022-11-13T03:44:06.739Z,70.65
2022-11-13T03:46:52.983Z,70.68
2022-11-13T03:49:39.211Z,75.93
2022-11-13T03:52:25.468Z,44.45
2022-11-13T03:55:11.508Z,67.25
2022-11-13T03:57:59.762Z,46.97
2022-11-13T04:00:46.818Z,38.60
2022-11-13T04:03:33.340Z,41.92
2022-11-13T04:06:19.426Z,48.05
2022-11-13T04:09:05.462Z,30.25
2022-11-13T04:11:51.828Z,30.02
2022-11-13T04:14:37.547Z,36.13
2022-11-13T04:17:23.471Z,27.73
2022-11-13T04:20:10.205Z,28.20
2022-11-13T04:22:57.389Z,34.60
2022-11-13T04:25:42.971Z,30.17
2022-11-13T04:28:30.099Z,33.05
2022-11-13T04:31:16.912Z,44.38
2022-11-13T04:34:02.609Z,24.92
2022-11-13T04:36:48.343Z,37.95
2022-11-13T04:39:34.043Z,22.45
2022-11-13T04:42:38.928Z,25.40
2022-11-13T04:45:27.486Z,24.63
2022-11-13T04:48:13.357Z,23.10
2022-11-13T04:51:00.017Z,22.98
2022-11-13T04:53:45.768Z,24.83
2022-11-13T04:56:31.860Z,26.73
2022-11-13T04:59:44.024Z,22.75
2022-11-13T05:02:29.866Z,24.67
2022-11-13T05:05:15.501Z,29.83
2022-11-13T05:08:01.639Z,36.70
2022-11-13T05:10:47.937Z,30.65
2022-11-13T05:13:35.560Z,27.75
2022-11-13T05:16:21.618Z,31.13
2022-11-13T05:19:08.004Z,26.35
2022-11-13T05:21:53.858Z,24.38
2022-11-13T05:24:39.495Z,22.10
2022-11-13T05:27:25.302Z,24.10
2022-11-13T05:30:11.430Z,21.15
2022-11-13T05:32:57.543Z,24.27
2022-11-13T05:35:43.251Z,23.92
2022-11-13T05:38:30.014Z,27.63
2022-11-13T05:41:18.971Z,22.38
2022-11-13T05:44:04.608Z,22.70
2022-11-13T05:46:50.415Z,25.17
2022-11-13T05:50:15.889Z,26.45
2022-11-13T05:53:01.497Z,58.85
2022-11-13T05:55:47.163Z,44.85
2022-11-13T05:58:34.268Z,35.63
2022-11-13T06:01:23.553Z,33.25
2022-11-13T06:04:10.247Z,34.45
2022-11-13T06:06:56.193Z,23.13
2022-11-13T06:09:42.259Z,33.92
2022-11-13T06:12:29.467Z,40.80
2022-11-13T06:15:15.787Z,37.38
2022-11-13T06:18:02.146Z,58.40
2022-11-13T06:20:48.039Z,31.05
2022-11-13T06:23:53.873Z,35.47
2022-11-13T06:30:20.416Z,38.08
2022-11-13T06:33:06.123Z,30.25
2022-11-13T06:35:52.424Z,46.08
2022-11-13T06:38:39.588Z,46.35
2022-11-13T06:41:29.443Z,36.85
2022-11-13T06:44:15.031Z,33.65
2022-11-13T06:47:00.927Z,32.90
2022-11-13T06:49:47.264Z,45.60
2022-11-13T06:52:34.105Z,26.13
2022-11-13T06:55:20.078Z,26.98
2022-11-13T06:58:06.331Z,25.65
2022-11-13T07:00:52.139Z,29.23
2022-11-13T07:03:38.434Z,31.85
2022-11-13T07:06:25.028Z,32.95
2022-11-13T07:09:11.043Z,27.38
2022-11-13T07:11:56.879Z,26.38
2022-11-13T07:14:43.394Z,29.70
2022-11-13T07:17:29.907Z,27.27
2022-11-13T07:20:16.478Z,27.25
2022-11-13T07:23:04.837Z,38.83
2022-11-13T07:25:53.804Z,41.83
2022-11-13T07:28:59.928Z,37.53
2022-11-13T07:31:45.789Z,36.25
2022-11-13T07:34:31.505Z,41.55
2022-11-13T07:37:18.004Z,28.92
2022-11-13T07:40:05.661Z,26.83
2022-11-13T07:43:02.663Z,19.65
2022-11-13T07:45:54.334Z,22.08
2022-11-13T07:48:40.779Z,22.27
2022-11-13T07:51:26.755Z,108.60
2022-11-13T07:54:13.253Z,47.20
2022-11-13T07:57:20.803Z,29.20
2022-11-13T08:00:07.849Z,29.65
2022-11-13T08:02:54.160Z,24.23
2022-11-13T08:05:40.963Z,22.85
2022-11-13T08:08:27.414Z,24.10
2022-11-13T08:11:14.457Z,25.30
2022-11-13T08:14:00.680Z,24.17
2022-11-13T08:16:46.965Z,26.20
2022-11-13T08:19:33.692Z,24.80
2022-11-13T08:22:19.523Z,23.80
2022-11-13T08:25:05.543Z,22.10
2022-11-13T08:27:54.330Z,20.33
2022-11-13T08:31:01.235Z,21.15
2022-11-13T08:33:46.928Z,24.58
2022-11-13T08:36:52.827Z,22.83
2022-11-13T08:39:38.560Z,20.73
2022-11-13T08:42:24.496Z,24.95
2022-11-13T08:45:11.252Z,18.77
2022-11-13T08:48:01.406Z,15.40
2022-11-13T08:50:52.075Z,21.40
2022-11-13T08:53:37.702Z,19.40
2022-11-13T08:56:23.375Z,17.65
2022-11-13T08:59:10.474Z,18.33
2022-11-13T09:01:59.332Z,15.40
2022-11-13T09:04:45.387Z,20.52
2022-11-13T09:07:31.509Z,14.82
2022-11-13T09:10:18.235Z,19.75
2022-11-13T09:13:06.032Z,12.90
2022-11-13T09:15:52.277Z,15.20
2022-11-13T09:18:38.832Z,16.65
2022-11-13T09:21:24.780Z,15.75
2022-11-13T09:24:10.939Z,16.42
2022-11-13T09:26:57.008Z,12.18
2022-11-13T09:29:43.438Z,12.30
2022-11-13T09:32:29.239Z,15.63
2022-11-13T09:35:14.978Z,14.70
2022-11-13T09:38:10.967Z,14.20
2022-11-13T09:44:31.405Z,8.68
2022-11-13T09:47:31.514Z,13.45
2022-11-13T09:50:25.043Z,8.75
2022-11-13T09:53:14.072Z,11.75
2022-11-13T09:56:19.558Z,10.52
2022-11-13T09:59:08.043Z,12.90
2022-11-13T10:02:33.353Z,8.50
2022-11-13T10:05:23.504Z,14.80
2022-11-13T10:08:23.997Z,11.75
2022-11-13T10:11:17.723Z,12.27
2022-11-13T10:14:17.159Z,13.57
2022-11-13T10:17:15.316Z,11.50
2022-11-13T10:20:05.069Z,18.80
2022-11-13T10:22:59.330Z,13.60
2022-11-13T10:25:46.071Z,10.60
2022-11-13T10:31:50.807Z,15.38
2022-11-13T10:34:36.695Z,14.93
2022-11-13T10:37:44.366Z,14.77
2022-11-13T10:40:34.022Z,13.88
2022-11-13T10:43:24.629Z,14.93
2022-11-13T10:46:23.153Z,15.63
2022-11-13T10:49:21.042Z,10.60
2022-11-13T10:52:21.037Z,23.17
2022-11-13T10:55:36.704Z,29.33
2022-11-13T10:58:22.823Z,16.50
2022-11-13T11:01:34.857Z,16.48
2022-11-13T11:04:30.190Z,12.65
2022-11-13T11:07:24.017Z,13.98
2022-11-13T11:10:20.770Z,11.80
2022-11-13T11:13:11.637Z,10.57
2022-11-13T11:16:00.179Z,10.60
2022-11-13T11:18:53.740Z,18.83
2022-11-13T11:21:41.490Z,9.30
2022-11-13T11:24:39.022Z,13.50
2022-11-13T11:27:40.206Z,10.20
2022-11-13T11:30:39.340Z,10.73
2022-11-13T11:34:02.041Z,13.77
2022-11-13T11:36:54.014Z,14.10
2022-11-13T11:39:46.480Z,10.70
2022-11-13T11:42:47.662Z,8.05
2022-11-13T11:45:39.977Z,11.48
2022-11-13T11:48:34.468Z,7.72
2022-11-13T11:51:31.415Z,9.40
2022-11-13T11:54:40.932Z,9.57
2022-11-13T11:57:36.194Z,10.38
2022-11-13T12:00:22.663Z,11.63
2022-11-13T12:03:37.267Z,8.57
2022-11-13T12:06:57.731Z,18.38
2022-11-13T12:09:51.260Z,15.02
2022-11-13T12:13:11.309Z,15.68
2022-11-13T12:16:25.690Z,13.20
2022-11-13T12:19:38.733Z,13.38
2022-11-13T12:22:46.860Z,11.35
2022-11-13T12:25:51.488Z,10.23
2022-11-13T12:28:49.348Z,11.70
2022-11-13T12:31:39.321Z,15.70
2022-11-13T12:34:30.976Z,60.95
2022-11-13T12:37:24.268Z,24.58
2022-11-13T12:40:29.563Z,43.53
2022-11-13T12:43:18.237Z,17.48
2022-11-13T12:46:09.039Z,10.05
2022-11-13T12:48:54.906Z,14.68
2022-11-13T12:51:41.836Z,15.10
2022-11-13T12:54:33.023Z,11.88
2022-11-13T12:57:27.177Z,11.60
2022-11-13T13:00:28.815Z,17.85
2022-11-13T13:03:38.942Z,13.20
2022-11-13T13:07:04.319Z,17.05
2022-11-13T13:10:11.497Z,19.63
2022-11-13T13:13:48.654Z,13.32
2022-11-13T13:16:34.731Z,16.00
2022-11-13T13:19:32.910Z,11.80
2022-11-13T13:22:54.829Z,10.30
2022-11-13T13:25:41.426Z,10.23
2022-11-13T13:28:27.729Z,9.68
2022-11-13T13:31:20.564Z,14.32
2022-11-13T13:34:57.631Z,15.75
2022-11-13T13:38:01.133Z,17.00
2022-11-13T13:41:01.743Z,17.35
2022-11-13T13:44:13.523Z,17.10
2022-11-13T13:47:00.100Z,18.08
2022-11-13T13:49:46.068Z,14.93
2022-11-13T13:52:36.040Z,13.13
2022-11-13T13:55:50.506Z,15.15
2022-11-13T13:58:38.127Z,14.10
2022-11-13T14:01:32.964Z,13.38
2022-11-13T14:04:21.297Z,16.10
2022-11-13T14:07:19.770Z,15.23
2022-11-13T14:10:06.753Z,14.85
2022-11-13T14:12:52.821Z,17.20
2022-11-13T14:15:39.680Z,11.55
2022-11-13T14:18:27.366Z,12.45
2022-11-13T14:21:22.878Z,19.73
2022-11-13T14:24:35.016Z,12.00
2022-11-13T14:27:24.974Z,15.70
2022-11-13T14:30:23.029Z,12.70
2022-11-13T14:33:14.926Z,14.30
2022-11-13T14:36:01.928Z,13.43
2022-11-13T14:38:52.086Z,17.20
2022-11-13T14:41:41.268Z,15.55
2022-11-13T14:44:34.055Z,19.50
2022-11-13T14:47:26.997Z,19.40
2022-11-13T14:50:27.583Z,18.98
2022-11-13T14:53:13.834Z,18.45
2022-11-13T14:56:27.932Z,21.63
2022-11-13T14:59:19.861Z,36.22
2022-11-13T15:02:06.988Z,20.33
2022-11-13T15:04:53.425Z,21.50
2022-11-13T15:07:46.075Z,19.23
2022-11-13T15:10:32.183Z,19.75
2022-11-13T15:13:19.102Z,44.17
2022-11-13T15:16:05.225Z,22.00
2022-11-13T15:19:04.994Z,27.35
2022-11-13T15:22:20.385Z,45.60
2022-11-13T15:24:57.838Z,25.58
2022-11-13T15:27:44.394Z,30.85
2022-11-13T15:30:30.133Z,28.33
2022-11-13T15:33:16.683Z,26.85
2022-11-13T15:36:03.247Z,24.08
2022-11-13T15:38:49.641Z,23.05
2022-11-13T15:45:16.702Z,21.35
2022-11-13T15:48:03.374Z,28.23
2022-11-13T15:50:49.345Z,25.52
2022-11-13T15:53:35.919Z,31.00
2022-11-13T15:56:23.197Z,35.67
2022-11-13T15:59:12.743Z,67.03
2022-11-13T16:01:58.652Z,116.80
2022-11-13T16:04:56.124Z,64.75
2022-11-13T16:07:42.740Z,30.38
2022-11-13T16:10:28.515Z,46.70
2022-11-13T16:13:14.811Z,54.03
2022-11-13T16:16:01.061Z,49.88
2022-11-13T16:18:46.551Z,35.42
2022-11-13T16:21:32.621Z,40.30
2022-11-13T16:24:22.620Z,33.80
2022-11-13T16:27:14.682Z,31.50
2022-11-13T16:30:06.583Z,34.75
2022-11-13T16:32:54.655Z,33.60
2022-11-13T16:35:40.820Z,27.95
2022-11-13T16:38:26.366Z,34.40
2022-11-13T16:41:14.737Z,28.23
2022-11-13T16:44:00.946Z,26.88
2022-11-13T16:46:48.054Z,23.00
2022-11-13T16:49:34.199Z,22.27
2022-11-13T16:52:20.542Z,51.13
2022-11-13T16:55:07.173Z,34.22
2022-11-13T16:57:52.783Z,53.53
2022-11-13T17:00:39.851Z,57.63
2022-11-13T17:03:25.429Z,52.20
2022-11-13T17:06:32.101Z,53.97
2022-11-13T17:09:18.300Z,60.20
2022-11-13T17:12:05.003Z,77.25
2022-11-13T17:14:51.168Z,53.33
2022-11-13T17:17:37.911Z,49.10
2022-11-13T17:20:24.747Z,42.22
2022-11-13T17:23:15.530Z,40.40
2022-11-13T17:26:02.652Z,37.20
2022-11-13T17:28:48.320Z,47.58
2022-11-13T17:31:34.496Z,38.03
2022-11-13T17:34:20.097Z,44.40
2022-11-13T17:37:06.462Z,77.30
2022-11-13T17:39:52.421Z,67.95
2022-11-13T17:42:39.556Z,72.35
2022-11-13T17:45:25.128Z,75.18
2022-11-13T17:48:11.424Z,78.25
2022-11-13T17:50:59.130Z,76.50
2022-11-13T17:53:45.440Z,75.68
2022-11-13T17:56:32.395Z,70.22
2022-11-13T17:59:19.090Z,79.90
2022-11-13T18:02:04.822Z,68.93
2022-11-13T18:04:51.271Z,84.03
2022-11-13T18:07:38.122Z,71.75
2022-11-13T18:10:24.217Z,65.95
2022-11-13T18:13:10.654Z,68.03
2022-11-13T18:15:56.199Z,70.82
2022-11-13T18:18:42.526Z,69.82
2022-11-13T18:21:31.563Z,67.00
2022-11-13T18:24:19.063Z,83.53
2022-11-13T18:27:08.301Z,69.40
2022-11-13T18:29:56.299Z,74.22
2022-11-13T18:32:42.499Z,76.53
2022-11-13T18:35:28.148Z,59.20
2022-11-13T18:38:13.785Z,56.47
2022-11-13T18:41:05.677Z,74.35
2022-11-13T18:43:52.152Z,85.60
2022-11-13T18:46:38.795Z,69.88
2022-11-13T18:49:24.711Z,43.20
2022-11-13T18:52:11.177Z,39.03
2022-11-13T18:54:57.117Z,35.08
2022-11-13T18:57:42.870Z,37.90
2022-11-13T19:00:29.257Z,37.22
2022-11-13T19:03:15.610Z,41.05
2022-11-13T19:06:01.993Z,34.00
2022-11-13T19:08:53.982Z,35.65
2022-11-13T19:11:40.420Z,39.67
2022-11-13T19:14:26.138Z,38.28
2022-11-13T19:17:12.520Z,33.53
2022-11-13T19:19:58.361Z,23.05
2022-11-13T19:22:44.535Z,25.15
2022-11-13T19:25:31.205Z,25.70
2022-11-13T19:28:17.243Z,29.65
2022-11-13T19:31:11.295Z,30.83
2022-11-13T19:33:59.545Z,26.13
2022-11-13T19:36:46.391Z,27.27
2022-11-13T19:39:32.064Z,32.60
2022-11-13T19:42:18.583Z,82.25
2022-11-13T19:45:05.315Z,89.60
2022-11-13T19:47:51.563Z,102.75
2022-11-13T19:50:38.413Z,121.07
2022-11-13T19:53:24.584Z,88.28
2022-11-13T19:56:10.829Z,54.03
2022-11-13T19:58:57.198Z,31.83
2022-11-13T20:01:43.472Z,40.80
2022-11-13T20:04:29.728Z,41.40
2022-11-13T20:07:16.063Z,48.50
2022-11-13T20:10:03.141Z,42.97
2022-11-13T20:12:49.105Z,49.75
2022-11-13T20:15:35.598Z,41.97
2022-11-13T20:18:21.638Z,38.47
2022-11-13T20:21:07.771Z,41.22
2022-11-13T20:23:56.239Z,41.97
2022-11-13T20:26:43.435Z,42.58
2022-11-13T20:29:29.109Z,33.00
2022-11-13T20:32:15.476Z,35.97
2022-11-13T20:35:02.520Z,36.95
2022-11-13T20:37:48.874Z,39.85
2022-11-13T20:40:34.792Z,39.42
2022-11-13T20:43:21.179Z,45.05
2022-11-13T20:46:12.962Z,76.57
2022-11-13T20:48:59.510Z,44.75
2022-11-13T20:51:46.120Z,37.15
2022-11-13T20:54:32.053Z,36.65
2022-11-13T20:57:21.163Z,36.08
2022-11-13T21:00:08.228Z,36.53
2022-11-13T21:02:54.087Z,33.08
2022-11-13T21:05:40.375Z,28.77
2022-11-13T21:08:27.781Z,34.70
2022-11-13T21:11:21.967Z,32.10
2022-11-13T21:14:09.954Z,41.45
2022-11-13T21:16:55.831Z,37.80
2022-11-13T21:19:42.096Z,45.03
2022-11-13T21:22:27.962Z,41.63
2022-11-13T21:25:14.459Z,44.25
2022-11-13T21:28:03.785Z,41.33
2022-11-13T21:30:50.061Z,57.10
2022-11-13T21:33:37.814Z,49.42
2022-11-13T21:36:27.001Z,46.38
2022-11-13T21:39:13.383Z,40.95
2022-11-13T21:41:59.653Z,39.33
2022-11-13T21:44:45.908Z,43.08
2022-11-13T21:47:31.664Z,45.58
2022-11-13T21:50:17.659Z,38.13
2022-11-13T21:53:03.465Z,34.88
2022-11-13T21:55:50.330Z,34.95
2022-11-13T21:58:38.115Z,33.00
2022-11-13T22:01:25.538Z,36.75
2022-11-13T22:04:11.698Z,34.17
2022-11-13T22:06:57.815Z,35.10
2022-11-13T22:09:44.941Z,40.85
2022-11-13T22:12:30.816Z,36.25
2022-11-13T22:15:17.055Z,36.47
2022-11-13T22:18:03.136Z,38.30
2022-11-13T22:20:49.315Z,41.65
2022-11-13T22:23:35.613Z,39.50
2022-11-13T22:26:23.824Z,41.33
2022-11-13T22:29:10.316Z,38.13
2022-11-13T22:31:56.436Z,38.63
2022-11-13T22:34:42.047Z,43.60
2022-11-13T22:37:28.440Z,38.40
2022-11-13T22:40:15.601Z,40.47
2022-11-13T22:43:01.590Z,39.03
2022-11-13T22:45:47.488Z,38.03
2022-11-13T22:48:35.800Z,34.78
2022-11-13T22:51:44.000Z,36.65
2022-11-13T22:54:30.161Z,36.60
2022-11-13T22:57:16.246Z,37.72
2022-11-13T23:00:09.119Z,35.38
2022-11-13T23:02:54.634Z,37.60
2022-11-13T23:05:40.610Z,37.10
2022-11-13T23:08:26.496Z,38.97
2022-11-13T23:11:33.210Z,40.30
2022-11-13T23:14:19.312Z,35.08
2022-11-13T23:17:05.482Z,41.85
2022-11-13T23:19:51.496Z,36.63
2022-11-13T23:22:38.008Z,37.83
2022-11-13T23:25:24.482Z,46.15
2022-11-13T23:31:50.909Z,38.42
2022-11-13T23:34:58.570Z,42.42
2022-11-13T23:37:42.831Z,36.65
2022-11-13T23:40:29.287Z,40.22
2022-11-13T23:43:15.169Z,36.80
2022-11-13T23:46:02.142Z,41.30
2022-11-13T23:48:47.898Z,41.60
2022-11-13T23:51:34.012Z,41.92
